Terminal Aerodrome Forecast
Issued by NWS

Home | Current Version | Previous Version | Text Only | Print | Product List | Glossary Off
Versions: 1 2 3 4 5 6 7 8 9 10 11 12 13 14

389
FTUS43 KTOP 142340
TAFMHK
TAF
KMHK 142340Z 1500/1524 25004KT P6SM BKN250
     FM150700 21007KT P6SM OVC150 WS015/23045KT
     FM151000 23010KT P6SM OVC100
     FM151900 31012KT P6SM SCT100 OVC250=

USA.gov is the U.S. government's official web portal to all federal, state and local government web resources and services.